sensor_id;sensor_type;location;lat;lon;timestamp;temperature;humidity
11700;DHT22;5906;51.660;6.674;2024-01-15T00:00:26;1.90;91.20
11700;DHT22;5906;51.660;6.674;2024-01-15T00:02:53;1.90;91.40
11700;DHT22;5906;51.660;6.674;2024-01-15T00:05:20;1.90;91.10
11700;DHT22;5906;51.660;6.674;2024-01-15T00:07:47;1.90;90.90
11700;DHT22;5906;51.660;6.674;2024-01-15T00:10:13;1.90;91.00
11700;DHT22;5906;51.660;6.674;2024-01-15T00:12:40;1.90;91.30
11700;DHT22;5906;51.660;6.674;2024-01-15T00:15:09;1.90;91.10
11700;DHT22;5906;51.660;6.674;2024-01-15T00:17:36;1.90;91.10
11700;DHT22;5906;51.660;6.674;2024-01-15T00:20:03;1.90;91.10
11700;DHT22;5906;51.660;6.674;2024-01-15T00:22:31;1.90;91.20
11700;DHT22;5906;51.660;6.674;2024-01-15T00:24:58;1.90;91.20
11700;DHT22;5906;51.660;6.674;2024-01-15T00:27:25;1.90;91.30
11700;DHT22;5906;51.660;6.674;2024-01-15T00:29:53;1.80;91.30
11700;DHT22;5906;51.660;6.674;2024-01-15T00:32:21;1.90;91.30
11700;DHT22;5906;51.660;6.674;2024-01-15T00:34:47;1.90;91.30
11700;DHT22;5906;51.660;6.674;2024-01-15T00:37:15;1.90;91.00
11700;DHT22;5906;51.660;6.674;2024-01-15T00:39:42;1.90;90.80
11700;DHT22;5906;51.660;6.674;2024-01-15T00:42:09;1.90;90.90
11700;DHT22;5906;51.660;6.674;2024-01-15T00:44:36;1.90;90.70
11700;DHT22;5906;51.660;6.674;2024-01-15T00:47:03;1.90;90.60
11700;DHT22;5906;51.660;6.674;2024-01-15T00:49:30;1.80;90.70
11700;DHT22;5906;51.660;6.674;2024-01-15T00:51:57;1.80;90.50
11700;DHT22;5906;51.660;6.674;2024-01-15T00:54:24;1.70;90.40
11700;DHT22;5906;51.660;6.674;2024-01-15T00:56:51;1.70;90.40
11700;DHT22;5906;51.660;6.674;2024-01-15T00:59:18;1.70;90.30
11700;DHT22;5906;51.660;6.674;2024-01-15T01:01:47;1.60;90.30
11700;DHT22;5906;51.660;6.674;2024-01-15T01:04:14;1.60;90.30
11700;DHT22;5906;51.660;6.674;2024-01-15T01:06:42;1.60;90.50
11700;DHT22;5906;51.660;6.674;2024-01-15T01:09:09;1.60;90.30
11700;DHT22;5906;51.660;6.674;2024-01-15T01:11:39;1.50;90.20
11700;DHT22;5906;51.660;6.674;2024-01-15T01:14:06;1.50;90.70
11700;DHT22;5906;51.660;6.674;2024-01-15T01:16:33;1.50;90.60
11700;DHT22;5906;51.660;6.674;2024-01-15T01:19:06;1.40;90.50
11700;DHT22;5906;51.660;6.674;2024-01-15T01:21:34;1.40;90.90
11700;DHT22;5906;51.660;6.674;2024-01-15T01:24:01;1.40;91.10
11700;DHT22;5906;51.660;6.674;2024-01-15T01:26:28;1.50;91.20
11700;DHT22;5906;51.660;6.674;2024-01-15T01:28:55;1.50;91.50
11700;DHT22;5906;51.660;6.674;2024-01-15T01:31:23;1.50;91.30
11700;DHT22;5906;51.660;6.674;2024-01-15T01:33:50;1.70;91.00
11700;DHT22;5906;51.660;6.674;2024-01-15T01:36:17;1.70;91.00
11700;DHT22;5906;51.660;6.674;2024-01-15T01:38:44;1.70;91.20
11700;DHT22;5906;51.660;6.674;2024-01-15T01:41:11;1.70;91.10
11700;DHT22;5906;51.660;6.674;2024-01-15T01:43:38;1.70;91.30
11700;DHT22;5906;51.660;6.674;2024-01-15T01:46:05;1.70;91.60
11700;DHT22;5906;51.660;6.674;2024-01-15T01:48:32;1.70;91.80
11700;DHT22;5906;51.660;6.674;2024-01-15T01:51:02;1.80;91.90
11700;DHT22;5906;51.660;6.674;2024-01-15T01:53:32;1.80;91.50
11700;DHT22;5906;51.660;6.674;2024-01-15T01:56:01;1.80;91.20
11700;DHT22;5906;51.660;6.674;2024-01-15T01:58:31;1.90;91.20
11700;DHT22;5906;51.660;6.674;2024-01-15T02:00:59;1.80;90.80
11700;DHT22;5906;51.660;6.674;2024-01-15T02:03:27;1.80;90.80
11700;DHT22;5906;51.660;6.674;2024-01-15T02:05:55;1.80;90.90
11700;DHT22;5906;51.660;6.674;2024-01-15T02:08:23;1.90;90.80
11700;DHT22;5906;51.660;6.674;2024-01-15T02:10:50;1.80;90.70
11700;DHT22;5906;51.660;6.674;2024-01-15T02:13:17;1.80;90.70
11700;DHT22;5906;51.660;6.674;2024-01-15T02:15:45;1.90;90.60
11700;DHT22;5906;51.660;6.674;2024-01-15T02:18:12;1.80;90.60
11700;DHT22;5906;51.660;6.674;2024-01-15T02:20:39;1.80;91.00
11700;DHT22;5906;51.660;6.674;2024-01-15T02:23:10;1.80;90.60
11700;DHT22;5906;51.660;6.674;2024-01-15T02:25:40;1.70;90.80
11700;DHT22;5906;51.660;6.674;2024-01-15T02:28:12;1.70;91.00
11700;DHT22;5906;51.660;6.674;2024-01-15T02:30:40;1.80;91.00
11700;DHT22;5906;51.660;6.674;2024-01-15T02:33:08;1.80;91.10
11700;DHT22;5906;51.660;6.674;2024-01-15T02:35:35;1.80;91.20
11700;DHT22;5906;51.660;6.674;2024-01-15T02:38:04;1.80;91.20
11700;DHT22;5906;51.660;6.674;2024-01-15T02:40:31;1.90;90.80
11700;DHT22;5906;51.660;6.674;2024-01-15T02:42:58;1.90;90.40
11700;DHT22;5906;51.660;6.674;2024-01-15T02:45:25;1.80;90.50
11700;DHT22;5906;51.660;6.674;2024-01-15T02:47:52;1.90;90.70
11700;DHT22;5906;51.660;6.674;2024-01-15T02:50:20;1.80;90.50
11700;DHT22;5906;51.660;6.674;2024-01-15T02:52:47;1.80;90.60
11700;DHT22;5906;51.660;6.674;2024-01-15T02:55:14;1.80;90.60
11700;DHT22;5906;51.660;6.674;2024-01-15T02:57:41;1.80;90.60
11700;DHT22;5906;51.660;6.674;2024-01-15T03:00:09;1.80;90.80
11700;DHT22;5906;51.660;6.674;2024-01-15T03:02:37;1.80;90.70
11700;DHT22;5906;51.660;6.674;2024-01-15T03:05:09;1.80;90.40
11700;DHT22;5906;51.660;6.674;2024-01-15T03:07:37;1.80;90.00
11700;DHT22;5906;51.660;6.674;2024-01-15T03:10:05;1.80;89.90
11700;DHT22;5906;51.660;6.674;2024-01-15T03:12:32;1.70;89.80
11700;DHT22;5906;51.660;6.674;2024-01-15T03:14:59;1.60;90.00
11700;DHT22;5906;51.660;6.674;2024-01-15T03:17:26;1.50;90.10
11700;DHT22;5906;51.660;6.674;2024-01-15T03:19:54;1.50;90.60
11700;DHT22;5906;51.660;6.674;2024-01-15T03:22:21;1.50;90.50
11700;DHT22;5906;51.660;6.674;2024-01-15T03:24:49;1.50;90.40
11700;DHT22;5906;51.660;6.674;2024-01-15T03:27:16;1.50;90.40
11700;DHT22;5906;51.660;6.674;2024-01-15T03:29:43;1.50;90.40
11700;DHT22;5906;51.660;6.674;2024-01-15T03:32:10;1.50;90.40
11700;DHT22;5906;51.660;6.674;2024-01-15T03:34:37;1.50;90.50
11700;DHT22;5906;51.660;6.674;2024-01-15T03:37:04;1.60;90.10
11700;DHT22;5906;51.660;6.674;2024-01-15T03:39:31;1.60;90.20
11700;DHT22;5906;51.660;6.674;2024-01-15T03:41:58;1.50;90.10
11700;DHT22;5906;51.660;6.674;2024-01-15T03:44:24;1.60;90.00
11700;DHT22;5906;51.660;6.674;2024-01-15T03:46:51;1.60;90.00
11700;DHT22;5906;51.660;6.674;2024-01-15T03:49:18;1.50;90.00
11700;DHT22;5906;51.660;6.674;2024-01-15T03:51:45;1.50;90.10
11700;DHT22;5906;51.660;6.674;2024-01-15T03:54:13;1.50;90.60
11700;DHT22;5906;51.660;6.674;2024-01-15T03:56:43;1.50;90.50
11700;DHT22;5906;51.660;6.674;2024-01-15T03:59:10;1.60;90.20
11700;DHT22;5906;51.660;6.674;2024-01-15T04:01:37;1.60;90.40
11700;DHT22;5906;51.660;6.674;2024-01-15T04:04:04;1.50;90.50
11700;DHT22;5906;51.660;6.674;2024-01-15T04:06:31;1.50;90.30
11700;DHT22;5906;51.660;6.674;2024-01-15T04:08:59;1.60;90.50
11700;DHT22;5906;51.660;6.674;2024-01-15T04:11:25;1.60;90.00
11700;DHT22;5906;51.660;6.674;2024-01-15T04:13:53;1.60;90.30
11700;DHT22;5906;51.660;6.674;2024-01-15T04:16:20;1.60;90.10
11700;DHT22;5906;51.660;6.674;2024-01-15T04:18:47;1.60;90.00
11700;DHT22;5906;51.660;6.674;2024-01-15T04:21:14;1.60;89.70
11700;DHT22;5906;51.660;6.674;2024-01-15T04:23:42;1.60;89.60
11700;DHT22;5906;51.660;6.674;2024-01-15T04:26:10;1.60;89.60
11700;DHT22;5906;51.660;6.674;2024-01-15T04:28:37;1.50;89.90
11700;DHT22;5906;51.660;6.674;2024-01-15T04:31:04;1.40;90.20
11700;DHT22;5906;51.660;6.674;2024-01-15T04:33:31;1.40;90.60
11700;DHT22;5906;51.660;6.674;2024-01-15T04:36:02;1.50;90.40
11700;DHT22;5906;51.660;6.674;2024-01-15T04:38:30;1.50;90.40
11700;DHT22;5906;51.660;6.674;2024-01-15T04:40:57;1.40;90.10
11700;DHT22;5906;51.660;6.674;2024-01-15T04:43:24;1.50;90.20
11700;DHT22;5906;51.660;6.674;2024-01-15T04:45:51;1.50;90.00
11700;DHT22;5906;51.660;6.674;2024-01-15T04:48:18;1.40;90.00
11700;DHT22;5906;51.660;6.674;2024-01-15T04:50:45;1.40;90.00
11700;DHT22;5906;51.660;6.674;2024-01-15T04:53:14;1.40;90.10
11700;DHT22;5906;51.660;6.674;2024-01-15T04:55:41;1.40;90.10
11700;DHT22;5906;51.660;6.674;2024-01-15T04:58:07;1.40;90.40
11700;DHT22;5906;51.660;6.674;2024-01-15T05:00:34;1.40;90.30
11700;DHT22;5906;51.660;6.674;2024-01-15T05:03:01;1.50;90.40
11700;DHT22;5906;51.660;6.674;2024-01-15T05:05:28;1.50;90.30
11700;DHT22;5906;51.660;6.674;2024-01-15T05:07:55;1.60;90.20
11700;DHT22;5906;51.660;6.674;2024-01-15T05:10:22;1.50;90.00
11700;DHT22;5906;51.660;6.674;2024-01-15T05:12:49;1.50;90.20
11700;DHT22;5906;51.660;6.674;2024-01-15T05:15:16;1.60;89.90
11700;DHT22;5906;51.660;6.674;2024-01-15T05:17:43;1.50;89.90
11700;DHT22;5906;51.660;6.674;2024-01-15T05:20:10;1.60;90.00
11700;DHT22;5906;51.660;6.674;2024-01-15T05:22:38;1.50;89.90
11700;DHT22;5906;51.660;6.674;2024-01-15T05:25:05;1.50;89.60
11700;DHT22;5906;51.660;6.674;2024-01-15T05:27:32;1.50;90.00
11700;DHT22;5906;51.660;6.674;2024-01-15T05:29:59;1.50;90.10
11700;DHT22;5906;51.660;6.674;2024-01-15T05:32:25;1.60;90.00
11700;DHT22;5906;51.660;6.674;2024-01-15T05:34:52;1.60;89.70
11700;DHT22;5906;51.660;6.674;2024-01-15T05:37:19;1.60;89.80
11700;DHT22;5906;51.660;6.674;2024-01-15T05:39:47;1.60;90.10
11700;DHT22;5906;51.660;6.674;2024-01-15T05:42:14;1.60;90.10
11700;DHT22;5906;51.660;6.674;2024-01-15T05:44:41;1.70;90.00
11700;DHT22;5906;51.660;6.674;2024-01-15T05:47:08;1.70;89.70
11700;DHT22;5906;51.660;6.674;2024-01-15T05:49:35;1.70;89.80
11700;DHT22;5906;51.660;6.674;2024-01-15T05:52:03;1.60;90.10
11700;DHT22;5906;51.660;6.674;2024-01-15T05:54:30;1.60;90.60
11700;DHT22;5906;51.660;6.674;2024-01-15T05:56:56;1.60;90.30
11700;DHT22;5906;51.660;6.674;2024-01-15T05:59:23;1.60;90.20
11700;DHT22;5906;51.660;6.674;2024-01-15T06:01:50;1.60;89.90
11700;DHT22;5906;51.660;6.674;2024-01-15T06:04:17;1.60;90.30
11700;DHT22;5906;51.660;6.674;2024-01-15T06:06:44;1.60;90.40
11700;DHT22;5906;51.660;6.674;2024-01-15T06:09:11;1.60;90.60
11700;DHT22;5906;51.660;6.674;2024-01-15T06:11:38;1.60;90.90
11700;DHT22;5906;51.660;6.674;2024-01-15T06:14:05;1.70;90.40
11700;DHT22;5906;51.660;6.674;2024-01-15T06:16:32;1.70;90.30
11700;DHT22;5906;51.660;6.674;2024-01-15T06:18:59;1.60;90.70
11700;DHT22;5906;51.660;6.674;2024-01-15T06:21:26;1.60;90.80
11700;DHT22;5906;51.660;6.674;2024-01-15T06:23:53;1.70;90.60
11700;DHT22;5906;51.660;6.674;2024-01-15T06:26:20;1.70;90.40
11700;DHT22;5906;51.660;6.674;2024-01-15T06:28:47;1.70;90.30
11700;DHT22;5906;51.660;6.674;2024-01-15T06:31:14;1.70;90.60
11700;DHT22;5906;51.660;6.674;2024-01-15T06:33:41;1.60;90.50
11700;DHT22;5906;51.660;6.674;2024-01-15T06:36:11;1.70;90.40
11700;DHT22;5906;51.660;6.674;2024-01-15T06:38:38;1.80;90.10
11700;DHT22;5906;51.660;6.674;2024-01-15T06:41:05;1.80;89.80
11700;DHT22;5906;51.660;6.674;2024-01-15T06:43:32;1.80;89.80
11700;DHT22;5906;51.660;6.674;2024-01-15T06:45:59;1.80;89.60
11700;DHT22;5906;51.660;6.674;2024-01-15T06:48:32;1.90;90.00
11700;DHT22;5906;51.660;6.674;2024-01-15T06:50:59;1.90;89.10
11700;DHT22;5906;51.660;6.674;2024-01-15T06:53:26;1.90;88.90
11700;DHT22;5906;51.660;6.674;2024-01-15T06:55:53;2.00;89.00
11700;DHT22;5906;51.660;6.674;2024-01-15T06:58:22;2.00;89.00
11700;DHT22;5906;51.660;6.674;2024-01-15T07:00:50;2.00;88.70
11700;DHT22;5906;51.660;6.674;2024-01-15T07:03:17;2.00;88.90
11700;DHT22;5906;51.660;6.674;2024-01-15T07:05:44;2.00;88.80
11700;DHT22;5906;51.660;6.674;2024-01-15T07:08:11;1.90;88.80
11700;DHT22;5906;51.660;6.674;2024-01-15T07:10:38;1.90;88.90
11700;DHT22;5906;51.660;6.674;2024-01-15T07:13:05;1.90;89.40
11700;DHT22;5906;51.660;6.674;2024-01-15T07:15:35;1.90;89.10
11700;DHT22;5906;51.660;6.674;2024-01-15T07:18:02;1.90;88.90
11700;DHT22;5906;51.660;6.674;2024-01-15T07:20:29;1.90;89.10
11700;DHT22;5906;51.660;6.674;2024-01-15T07:22:59;1.90;89.30
11700;DHT22;5906;51.660;6.674;2024-01-15T07:25:30;1.90;89.40
11700;DHT22;5906;51.660;6.674;2024-01-15T07:27:57;2.00;89.30
11700;DHT22;5906;51.660;6.674;2024-01-15T07:30:24;2.00;89.30
11700;DHT22;5906;51.660;6.674;2024-01-15T07:32:51;2.00;89.30
11700;DHT22;5906;51.660;6.674;2024-01-15T07:35:20;2.00;89.20
11700;DHT22;5906;51.660;6.674;2024-01-15T07:37:47;2.00;89.00
11700;DHT22;5906;51.660;6.674;2024-01-15T07:40:14;2.00;89.20
11700;DHT22;5906;51.660;6.674;2024-01-15T07:42:42;1.90;89.20
11700;DHT22;5906;51.660;6.674;2024-01-15T07:45:14;1.90;89.70
11700;DHT22;5906;51.660;6.674;2024-01-15T07:47:43;1.80;89.90
11700;DHT22;5906;51.660;6.674;2024-01-15T07:50:11;1.80;89.90
11700;DHT22;5906;51.660;6.674;2024-01-15T07:52:45;1.70;90.10
11700;DHT22;5906;51.660;6.674;2024-01-15T07:55:12;1.60;90.20
11700;DHT22;5906;51.660;6.674;2024-01-15T07:57:40;1.50;90.50
11700;DHT22;5906;51.660;6.674;2024-01-15T08:00:07;1.40;90.70
11700;DHT22;5906;51.660;6.674;2024-01-15T08:02:36;1.40;91.10
11700;DHT22;5906;51.660;6.674;2024-01-15T08:05:04;1.40;91.30
11700;DHT22;5906;51.660;6.674;2024-01-15T08:07:31;1.40;91.50
11700;DHT22;5906;51.660;6.674;2024-01-15T08:09:58;1.30;91.80
11700;DHT22;5906;51.660;6.674;2024-01-15T08:12:25;1.30;92.00
11700;DHT22;5906;51.660;6.674;2024-01-15T08:14:52;1.30;92.20
11700;DHT22;5906;51.660;6.674;2024-01-15T08:17:19;1.30;92.10
11700;DHT22;5906;51.660;6.674;2024-01-15T08:19:48;1.30;92.10
11700;DHT22;5906;51.660;6.674;2024-01-15T08:22:16;1.20;92.20
11700;DHT22;5906;51.660;6.674;2024-01-15T08:24:52;1.20;92.40
11700;DHT22;5906;51.660;6.674;2024-01-15T08:45:02;1.10;92.60
11700;DHT22;5906;51.660;6.674;2024-01-15T08:49:23;1.10;92.90
11700;DHT22;5906;51.660;6.674;2024-01-15T09:27:02;1.00;92.90
11700;DHT22;5906;51.660;6.674;2024-01-15T09:30:08;1.00;93.20
11700;DHT22;5906;51.660;6.674;2024-01-15T09:32:37;1.00;93.40
11700;DHT22;5906;51.660;6.674;2024-01-15T09:35:04;1.00;93.40
11700;DHT22;5906;51.660;6.674;2024-01-15T09:37:31;1.10;93.20
11700;DHT22;5906;51.660;6.674;2024-01-15T09:40:13;1.10;93.00
11700;DHT22;5906;51.660;6.674;2024-01-15T09:42:44;1.20;92.80
11700;DHT22;5906;51.660;6.674;2024-01-15T09:45:12;1.20;92.60
11700;DHT22;5906;51.660;6.674;2024-01-15T09:47:40;1.20;92.60
11700;DHT22;5906;51.660;6.674;2024-01-15T09:50:13;1.30;92.50
11700;DHT22;5906;51.660;6.674;2024-01-15T09:52:43;1.30;92.40
11700;DHT22;5906;51.660;6.674;2024-01-15T09:55:11;1.30;92.20
11700;DHT22;5906;51.660;6.674;2024-01-15T09:57:39;1.40;92.10
11700;DHT22;5906;51.660;6.674;2024-01-15T10:00:07;1.40;91.90
11700;DHT22;5906;51.660;6.674;2024-01-15T10:02:38;1.40;91.80
11700;DHT22;5906;51.660;6.674;2024-01-15T10:05:05;1.40;91.70
11700;DHT22;5906;51.660;6.674;2024-01-15T10:07:35;1.50;91.50
11700;DHT22;5906;51.660;6.674;2024-01-15T10:10:03;1.50;91.40
11700;DHT22;5906;51.660;6.674;2024-01-15T10:12:33;1.50;91.10
11700;DHT22;5906;51.660;6.674;2024-01-15T10:15:02;1.50;91.20
11700;DHT22;5906;51.660;6.674;2024-01-15T10:17:31;1.50;91.00
11700;DHT22;5906;51.660;6.674;2024-01-15T10:19:59;1.50;91.20
11700;DHT22;5906;51.660;6.674;2024-01-15T10:22:28;1.50;91.30
11700;DHT22;5906;51.660;6.674;2024-01-15T10:24:56;1.50;91.10
11700;DHT22;5906;51.660;6.674;2024-01-15T10:27:25;1.50;90.90
11700;DHT22;5906;51.660;6.674;2024-01-15T10:29:52;1.50;91.10
11700;DHT22;5906;51.660;6.674;2024-01-15T10:32:20;1.50;90.90
11700;DHT22;5906;51.660;6.674;2024-01-15T10:34:52;1.50;91.00
11700;DHT22;5906;51.660;6.674;2024-01-15T10:37:20;1.50;91.10
11700;DHT22;5906;51.660;6.674;2024-01-15T10:39:48;1.70;91.30
11700;DHT22;5906;51.660;6.674;2024-01-15T10:42:16;1.80;90.50
11700;DHT22;5906;51.660;6.674;2024-01-15T10:44:48;1.90;90.30
11700;DHT22;5906;51.660;6.674;2024-01-15T10:47:16;2.10;89.50
11700;DHT22;5906;51.660;6.674;2024-01-15T10:49:44;2.10;89.20
11700;DHT22;5906;51.660;6.674;2024-01-15T10:52:12;2.10;89.10
11700;DHT22;5906;51.660;6.674;2024-01-15T10:54:41;2.10;88.80
11700;DHT22;5906;51.660;6.674;2024-01-15T10:57:10;2.10;89.00
11700;DHT22;5906;51.660;6.674;2024-01-15T10:59:38;2.20;89.20
11700;DHT22;5906;51.660;6.674;2024-01-15T11:02:05;2.20;88.70
11700;DHT22;5906;51.660;6.674;2024-01-15T11:04:33;2.30;89.20
11700;DHT22;5906;51.660;6.674;2024-01-15T11:07:03;2.40;88.50
11700;DHT22;5906;51.660;6.674;2024-01-15T11:09:35;2.40;87.80
11700;DHT22;5906;51.660;6.674;2024-01-15T11:12:12;2.30;87.80
11700;DHT22;5906;51.660;6.674;2024-01-15T11:14:48;2.20;87.60
11700;DHT22;5906;51.660;6.674;2024-01-15T11:17:17;2.20;88.20
11700;DHT22;5906;51.660;6.674;2024-01-15T11:19:47;2.20;87.70
11700;DHT22;5906;51.660;6.674;2024-01-15T11:25:01;2.30;87.80
11700;DHT22;5906;51.660;6.674;2024-01-15T11:27:45;2.40;87.70
11700;DHT22;5906;51.660;6.674;2024-01-15T11:30:15;2.30;87.80
11700;DHT22;5906;51.660;6.674;2024-01-15T11:32:43;2.30;87.70
11700;DHT22;5906;51.660;6.674;2024-01-15T11:35:13;2.20;87.80
11700;DHT22;5906;51.660;6.674;2024-01-15T11:43:00;2.20;88.40
11700;DHT22;5906;51.660;6.674;2024-01-15T11:45:32;2.20;88.80
11700;DHT22;5906;51.660;6.674;2024-01-15T11:48:16;2.20;88.80
11700;DHT22;5906;51.660;6.674;2024-01-15T11:50:49;2.30;88.50
11700;DHT22;5906;51.660;6.674;2024-01-15T11:55:51;2.20;88.60
11700;DHT22;5906;51.660;6.674;2024-01-15T11:58:19;2.40;88.40
11700;DHT22;5906;51.660;6.674;2024-01-15T12:00:48;2.40;88.00
11700;DHT22;5906;51.660;6.674;2024-01-15T12:03:21;2.50;87.60
11700;DHT22;5906;51.660;6.674;2024-01-15T12:05:49;2.60;86.80
11700;DHT22;5906;51.660;6.674;2024-01-15T12:08:23;2.60;86.50
11700;DHT22;5906;51.660;6.674;2024-01-15T12:10:51;2.50;86.60
11700;DHT22;5906;51.660;6.674;2024-01-15T12:13:18;2.50;86.70
11700;DHT22;5906;51.660;6.674;2024-01-15T12:15:47;2.40;86.40
11700;DHT22;5906;51.660;6.674;2024-01-15T12:18:16;2.30;86.60
11700;DHT22;5906;51.660;6.674;2024-01-15T12:20:45;2.10;87.30
11700;DHT22;5906;51.660;6.674;2024-01-15T12:23:15;2.10;87.60
11700;DHT22;5906;51.660;6.674;2024-01-15T12:25:44;2.10;88.30
11700;DHT22;5906;51.660;6.674;2024-01-15T12:28:12;2.10;88.10
11700;DHT22;5906;51.660;6.674;2024-01-15T12:30:39;2.20;88.50
11700;DHT22;5906;51.660;6.674;2024-01-15T12:33:07;2.30;88.20
11700;DHT22;5906;51.660;6.674;2024-01-15T12:35:36;2.30;88.30
11700;DHT22;5906;51.660;6.674;2024-01-15T12:38:03;2.30;88.50
11700;DHT22;5906;51.660;6.674;2024-01-15T12:40:32;2.30;88.10
11700;DHT22;5906;51.660;6.674;2024-01-15T12:53:48;2.60;87.90
11700;DHT22;5906;51.660;6.674;2024-01-15T12:56:24;2.60;87.60
11700;DHT22;5906;51.660;6.674;2024-01-15T12:58:56;2.60;86.70
11700;DHT22;5906;51.660;6.674;2024-01-15T13:01:24;2.70;86.30
11700;DHT22;5906;51.660;6.674;2024-01-15T13:03:51;2.80;86.20
11700;DHT22;5906;51.660;6.674;2024-01-15T13:06:24;2.80;85.40
11700;DHT22;5906;51.660;6.674;2024-01-15T13:08:57;2.80;85.90
11700;DHT22;5906;51.660;6.674;2024-01-15T13:11:25;3.00;86.60
11700;DHT22;5906;51.660;6.674;2024-01-15T13:13:53;3.20;85.80
11700;DHT22;5906;51.660;6.674;2024-01-15T13:16:20;3.20;85.20
11700;DHT22;5906;51.660;6.674;2024-01-15T13:18:53;3.30;85.40
11700;DHT22;5906;51.660;6.674;2024-01-15T13:21:20;3.20;84.80
11700;DHT22;5906;51.660;6.674;2024-01-15T13:23:47;3.30;84.10
11700;DHT22;5906;51.660;6.674;2024-01-15T13:26:15;3.30;84.10
11700;DHT22;5906;51.660;6.674;2024-01-15T13:28:44;3.30;83.60
11700;DHT22;5906;51.660;6.674;2024-01-15T13:31:11;3.30;83.30
11700;DHT22;5906;51.660;6.674;2024-01-15T13:33:39;3.30;82.90
11700;DHT22;5906;51.660;6.674;2024-01-15T13:36:10;3.20;83.30
11700;DHT22;5906;51.660;6.674;2024-01-15T13:38:37;3.20;83.10
11700;DHT22;5906;51.660;6.674;2024-01-15T13:41:05;3.10;82.90
11700;DHT22;5906;51.660;6.674;2024-01-15T13:43:32;2.90;83.70
11700;DHT22;5906;51.660;6.674;2024-01-15T13:46:00;2.80;84.50
11700;DHT22;5906;51.660;6.674;2024-01-15T13:48:27;2.60;85.40
11700;DHT22;5906;51.660;6.674;2024-01-15T13:50:54;2.50;86.20
11700;DHT22;5906;51.660;6.674;2024-01-15T13:53:21;2.50;86.80
11700;DHT22;5906;51.660;6.674;2024-01-15T13:55:49;2.50;87.30
11700;DHT22;5906;51.660;6.674;2024-01-15T13:58:16;2.40;86.80
11700;DHT22;5906;51.660;6.674;2024-01-15T14:00:45;2.40;87.60
11700;DHT22;5906;51.660;6.674;2024-01-15T14:03:13;2.40;87.70
11700;DHT22;5906;51.660;6.674;2024-01-15T14:05:40;2.40;88.20
11700;DHT22;5906;51.660;6.674;2024-01-15T14:08:08;2.50;88.30
11700;DHT22;5906;51.660;6.674;2024-01-15T14:10:36;2.50;87.80
11700;DHT22;5906;51.660;6.674;2024-01-15T14:21:12;2.50;87.40
11700;DHT22;5906;51.660;6.674;2024-01-15T14:23:39;2.50;87.40
11700;DHT22;5906;51.660;6.674;2024-01-15T14:26:06;2.40;87.00
11700;DHT22;5906;51.660;6.674;2024-01-15T14:28:33;2.40;86.70
11700;DHT22;5906;51.660;6.674;2024-01-15T14:31:00;2.30;86.80
11700;DHT22;5906;51.660;6.674;2024-01-15T14:33:27;2.30;86.50
11700;DHT22;5906;51.660;6.674;2024-01-15T14:35:54;2.30;86.80
11700;DHT22;5906;51.660;6.674;2024-01-15T14:38:21;2.30;86.90
11700;DHT22;5906;51.660;6.674;2024-01-15T14:40:57;2.30;86.00
11700;DHT22;5906;51.660;6.674;2024-01-15T14:43:44;2.20;85.60
11700;DHT22;5906;51.660;6.674;2024-01-15T14:55:31;2.00;85.00
11700;DHT22;5906;51.660;6.674;2024-01-15T14:59:26;1.90;84.60
11700;DHT22;5906;51.660;6.674;2024-01-15T15:01:55;1.80;84.20
11700;DHT22;5906;51.660;6.674;2024-01-15T15:04:23;1.80;84.40
11700;DHT22;5906;51.660;6.674;2024-01-15T15:06:50;1.90;84.30
11700;DHT22;5906;51.660;6.674;2024-01-15T15:09:20;1.90;84.30
11700;DHT22;5906;51.660;6.674;2024-01-15T15:11:47;1.80;84.90
11700;DHT22;5906;51.660;6.674;2024-01-15T15:14:14;1.90;85.00
11700;DHT22;5906;51.660;6.674;2024-01-15T15:16:41;1.90;85.00
11700;DHT22;5906;51.660;6.674;2024-01-15T15:19:10;1.90;84.50
11700;DHT22;5906;51.660;6.674;2024-01-15T15:21:38;1.90;85.40
11700;DHT22;5906;51.660;6.674;2024-01-15T15:24:08;1.90;84.80
11700;DHT22;5906;51.660;6.674;2024-01-15T15:30:46;1.90;85.50
11700;DHT22;5906;51.660;6.674;2024-01-15T15:36:46;1.90;85.50
11700;DHT22;5906;51.660;6.674;2024-01-15T15:39:24;1.80;85.60
11700;DHT22;5906;51.660;6.674;2024-01-15T15:41:52;1.70;85.60
11700;DHT22;5906;51.660;6.674;2024-01-15T15:44:19;1.60;86.00
11700;DHT22;5906;51.660;6.674;2024-01-15T15:46:49;1.60;86.30
11700;DHT22;5906;51.660;6.674;2024-01-15T15:49:27;1.50;86.40
11700;DHT22;5906;51.660;6.674;2024-01-15T16:00:05;1.30;87.70
11700;DHT22;5906;51.660;6.674;2024-01-15T16:02:32;1.30;88.20
11700;DHT22;5906;51.660;6.674;2024-01-15T16:05:01;1.30;88.20
11700;DHT22;5906;51.660;6.674;2024-01-15T16:07:31;1.40;89.00
11700;DHT22;5906;51.660;6.674;2024-01-15T16:09:58;1.50;89.10
11700;DHT22;5906;51.660;6.674;2024-01-15T16:12:26;1.50;88.60
11700;DHT22;5906;51.660;6.674;2024-01-15T16:14:52;1.60;88.80
11700;DHT22;5906;51.660;6.674;2024-01-15T16:17:20;1.60;89.10
11700;DHT22;5906;51.660;6.674;2024-01-15T16:20:07;1.60;89.00
11700;DHT22;5906;51.660;6.674;2024-01-15T16:22:53;1.60;88.80
11700;DHT22;5906;51.660;6.674;2024-01-15T16:25:40;1.60;88.60
11700;DHT22;5906;51.660;6.674;2024-01-15T16:28:08;1.70;88.30
11700;DHT22;5906;51.660;6.674;2024-01-15T16:30:36;1.60;88.30
11700;DHT22;5906;51.660;6.674;2024-01-15T16:33:12;1.60;88.70
11700;DHT22;5906;51.660;6.674;2024-01-15T16:35:40;1.60;88.70
11700;DHT22;5906;51.660;6.674;2024-01-15T16:38:07;1.60;88.80
11700;DHT22;5906;51.660;6.674;2024-01-15T16:40:34;1.60;88.90
11700;DHT22;5906;51.660;6.674;2024-01-15T16:43:03;1.70;89.10
11700;DHT22;5906;51.660;6.674;2024-01-15T16:45:30;1.70;88.20
11700;DHT22;5906;51.660;6.674;2024-01-15T16:47:57;1.60;88.50
11700;DHT22;5906;51.660;6.674;2024-01-15T16:50:24;1.70;88.20
11700;DHT22;5906;51.660;6.674;2024-01-15T16:52:51;1.80;87.90
11700;DHT22;5906;51.660;6.674;2024-01-15T16:55:18;1.70;87.80
11700;DHT22;5906;51.660;6.674;2024-01-15T16:57:45;1.70;88.10
11700;DHT22;5906;51.660;6.674;2024-01-15T17:00:12;1.70;88.10
11700;DHT22;5906;51.660;6.674;2024-01-15T17:02:39;1.70;88.50
11700;DHT22;5906;51.660;6.674;2024-01-15T17:05:06;1.70;88.00
11700;DHT22;5906;51.660;6.674;2024-01-15T17:07:34;1.80;88.50
11700;DHT22;5906;51.660;6.674;2024-01-15T17:10:02;1.80;87.70
11700;DHT22;5906;51.660;6.674;2024-01-15T17:12:29;1.80;87.60
11700;DHT22;5906;51.660;6.674;2024-01-15T17:14:56;1.80;87.20
11700;DHT22;5906;51.660;6.674;2024-01-15T17:17:39;1.70;87.00
11700;DHT22;5906;51.660;6.674;2024-01-15T17:20:14;1.70;86.80
11700;DHT22;5906;51.660;6.674;2024-01-15T17:22:41;1.70;86.90
11700;DHT22;5906;51.660;6.674;2024-01-15T17:25:08;1.60;86.90
11700;DHT22;5906;51.660;6.674;2024-01-15T17:27:35;1.60;86.90
11700;DHT22;5906;51.660;6.674;2024-01-15T17:30:03;1.60;87.10
11700;DHT22;5906;51.660;6.674;2024-01-15T17:32:30;1.60;87.00
11700;DHT22;5906;51.660;6.674;2024-01-15T17:35:00;1.50;87.20
11700;DHT22;5906;51.660;6.674;2024-01-15T17:37:27;1.60;87.30
11700;DHT22;5906;51.660;6.674;2024-01-15T17:39:55;1.60;87.30
11700;DHT22;5906;51.660;6.674;2024-01-15T17:42:23;1.60;87.60
11700;DHT22;5906;51.660;6.674;2024-01-15T17:44:50;1.70;87.10
11700;DHT22;5906;51.660;6.674;2024-01-15T17:47:26;1.70;86.90
11700;DHT22;5906;51.660;6.674;2024-01-15T17:49:53;1.70;86.90
11700;DHT22;5906;51.660;6.674;2024-01-15T17:52:21;1.80;86.70
11700;DHT22;5906;51.660;6.674;2024-01-15T17:54:50;1.80;86.60
11700;DHT22;5906;51.660;6.674;2024-01-15T17:57:18;1.70;86.60
11700;DHT22;5906;51.660;6.674;2024-01-15T17:59:50;1.70;86.80